createdAt,value
2019-04-05T00:00:38.887Z,65.50
2019-04-05T00:03:44.249Z,65.30
2019-04-05T00:06:49.295Z,65.40
2019-04-05T00:09:54.572Z,65.30
2019-04-05T00:12:59.876Z,65.20
2019-04-05T00:16:05.329Z,65.50
2019-04-05T00:19:10.547Z,65.60
2019-04-05T00:22:15.556Z,65.80
2019-04-05T00:25:20.639Z,65.80
2019-04-05T00:28:25.890Z,65.80
2019-04-05T00:31:30.951Z,65.80
2019-04-05T00:34:36.325Z,65.70
2019-04-05T00:37:41.240Z,65.50
2019-04-05T00:40:46.314Z,65.30
2019-04-05T00:43:53.066Z,65.10
2019-04-05T00:46:58.370Z,64.90
2019-04-05T00:50:03.283Z,64.90
2019-04-05T00:53:08.527Z,64.60
2019-04-05T00:56:13.961Z,64.70
2019-04-05T00:59:19.182Z,64.70
2019-04-05T01:02:24.225Z,65.50
2019-04-05T01:05:29.141Z,64.80
2019-04-05T01:08:34.681Z,64.70
2019-04-05T01:11:39.629Z,64.60
2019-04-05T01:14:44.982Z,64.50
2019-04-05T01:17:50.176Z,64.50
2019-04-05T01:20:56.720Z,63.50
2019-04-05T01:24:03.876Z,63.50
2019-04-05T01:27:09.314Z,63.30
2019-04-05T01:30:15.278Z,63.10
2019-04-05T01:33:20.354Z,62.90
2019-04-05T01:36:25.392Z,63.30
2019-04-05T01:39:30.431Z,63.50
2019-04-05T01:42:35.651Z,63.50
2019-04-05T01:45:52.687Z,63.20
2019-04-05T01:48:48.869Z,63.10
2019-04-05T01:51:54.143Z,63.30
2019-04-05T01:54:59.186Z,63.10
2019-04-05T01:58:04.304Z,64.10
2019-04-05T02:01:09.521Z,63.40
2019-04-05T02:04:14.711Z,63.20
2019-04-05T02:07:19.914Z,63.10
2019-04-05T02:10:25.135Z,62.90
2019-04-05T02:13:30.167Z,63.10
2019-04-05T02:16:35.484Z,63.10
2019-04-05T02:19:40.983Z,62.80
2019-04-05T02:22:45.889Z,62.60
2019-04-05T02:25:51.090Z,62.70
2019-04-05T02:28:56.135Z,62.40
2019-04-05T02:32:01.280Z,62.20
2019-04-05T02:35:06.614Z,62.10
2019-04-05T02:38:11.892Z,61.60
2019-04-05T02:41:17.924Z,61.60
2019-04-05T02:44:23.525Z,61.30
2019-04-05T02:47:29.046Z,61.30
2019-04-05T02:50:37.085Z,61.10
2019-04-05T02:53:43.949Z,61.40
2019-04-05T02:56:50.580Z,61.00
2019-04-05T02:59:55.776Z,61.00
2019-04-05T03:03:01.947Z,61.40
2019-04-05T03:06:09.189Z,61.00
2019-04-05T03:09:14.522Z,60.30
2019-04-05T03:12:20.486Z,59.80
2019-04-05T03:15:25.866Z,59.60
2019-04-05T03:18:32.818Z,59.60
2019-04-05T03:21:41.084Z,59.60
2019-04-05T03:24:47.444Z,59.60
2019-04-05T03:27:52.681Z,59.90
2019-04-05T03:30:58.191Z,60.30
2019-04-05T03:34:03.602Z,60.50
2019-04-05T03:37:08.797Z,60.50
2019-04-05T03:40:13.888Z,60.30
2019-04-05T03:43:19.169Z,60.30
2019-04-05T03:46:24.441Z,60.00
2019-04-05T03:49:29.673Z,60.30
2019-04-05T03:52:35.690Z,60.20
2019-04-05T03:55:40.791Z,61.00
2019-04-05T03:58:46.650Z,60.30
2019-04-05T04:01:51.809Z,60.70
2019-04-05T04:04:57.139Z,59.90
2019-04-05T04:08:02.391Z,59.70
2019-04-05T04:11:08.215Z,61.00
2019-04-05T04:14:13.915Z,60.50
2019-04-05T04:17:19.189Z,60.70
2019-04-05T04:20:32.510Z,60.50
2019-04-05T04:23:37.833Z,60.70
2019-04-05T04:26:43.248Z,60.40
2019-04-05T04:29:48.225Z,60.30
2019-04-05T04:32:53.353Z,60.20
2019-04-05T04:36:00.590Z,60.30
2019-04-05T04:39:07.015Z,59.70
2019-04-05T04:42:13.049Z,59.90
2019-04-05T04:45:18.834Z,59.60
2019-04-05T04:48:24.583Z,59.10
2019-04-05T04:51:30.257Z,58.70
2019-04-05T04:54:35.211Z,58.70
2019-04-05T04:57:40.786Z,58.60
2019-04-05T05:00:45.875Z,58.50
2019-04-05T05:03:51.087Z,58.40
2019-04-05T05:06:56.307Z,58.00
2019-04-05T05:10:03.256Z,58.20
2019-04-05T05:13:09.114Z,58.10
2019-04-05T05:16:14.165Z,58.10
2019-04-05T05:19:19.327Z,57.40
2019-04-05T05:22:24.826Z,57.60
2019-04-05T05:25:29.860Z,57.70
2019-04-05T05:28:35.241Z,57.70
2019-04-05T05:31:49.773Z,57.40
2019-04-05T05:35:01.975Z,57.20
2019-04-05T05:38:02.921Z,57.40
2019-04-05T05:41:08.090Z,57.30
2019-04-05T05:44:13.123Z,57.20
2019-04-05T05:47:18.363Z,56.90
2019-04-05T05:50:42.063Z,57.40
2019-04-05T05:53:47.653Z,56.40
2019-04-05T05:56:52.832Z,56.60
2019-04-05T06:00:00.216Z,56.80
2019-04-05T06:03:06.241Z,56.70
2019-04-05T06:06:10.812Z,56.40
2019-04-05T06:09:15.757Z,56.40
2019-04-05T06:12:20.861Z,56.40
2019-04-05T06:15:25.824Z,56.30
2019-04-05T06:18:30.729Z,56.30
2019-04-05T06:21:35.808Z,56.30
2019-04-05T06:24:40.899Z,56.30
2019-04-05T06:27:46.009Z,56.00
2019-04-05T06:30:51.202Z,56.10
2019-04-05T06:33:56.200Z,56.10
2019-04-05T06:37:01.468Z,56.50
2019-04-05T06:40:07.094Z,55.80
2019-04-05T06:43:12.096Z,55.80
2019-04-05T06:46:17.042Z,55.60
2019-04-05T06:49:22.043Z,55.40
2019-04-05T06:52:27.023Z,55.30
2019-04-05T06:55:31.870Z,55.60
2019-04-05T06:58:36.852Z,55.80
2019-04-05T07:01:41.850Z,55.80
2019-04-05T07:04:46.931Z,55.50
2019-04-05T07:07:51.844Z,55.30
2019-04-05T07:10:57.083Z,55.60
2019-04-05T07:14:02.282Z,55.30
2019-04-05T07:17:07.229Z,55.60
2019-04-05T07:20:12.726Z,56.30
2019-04-05T07:23:17.728Z,56.70
2019-04-05T07:26:22.917Z,56.90
2019-04-05T07:29:28.263Z,57.20
2019-04-05T07:32:39.051Z,57.80
2019-04-05T07:35:44.005Z,58.30
2019-04-05T07:38:48.901Z,58.80
2019-04-05T07:41:54.026Z,59.40
2019-04-05T07:44:59.260Z,59.40
2019-04-05T07:48:04.353Z,60.00
2019-04-05T07:51:09.354Z,60.10
2019-04-05T07:54:14.308Z,60.30
2019-04-05T07:57:20.702Z,60.80
2019-04-05T08:00:47.146Z,60.70
2019-04-05T08:03:52.339Z,61.30
2019-04-05T08:07:00.552Z,61.20
2019-04-05T08:10:07.373Z,61.40
2019-04-05T08:13:14.922Z,61.70
2019-04-05T08:16:19.985Z,62.00
2019-04-05T08:19:24.917Z,61.40
2019-04-05T08:22:32.307Z,61.50
2019-04-05T08:25:37.121Z,60.70
2019-04-05T08:28:42.092Z,60.40
2019-04-05T08:31:47.318Z,60.50
2019-04-05T08:34:52.282Z,60.30
2019-04-05T08:37:57.331Z,60.50
2019-04-05T08:41:02.849Z,60.80
2019-04-05T08:44:08.161Z,60.70
2019-04-05T08:47:13.156Z,60.80
2019-04-05T08:50:18.286Z,59.90
2019-04-05T08:53:23.372Z,59.70
2019-04-05T08:56:28.406Z,59.70
2019-04-05T08:59:33.367Z,59.60
2019-04-05T09:02:38.267Z,59.50
2019-04-05T09:05:43.153Z,60.20
2019-04-05T09:08:48.277Z,61.60
2019-04-05T09:11:53.320Z,61.40
2019-04-05T09:14:58.431Z,61.30
2019-04-05T09:18:03.452Z,61.90
2019-04-05T09:21:10.112Z,62.60
2019-04-05T09:24:15.359Z,63.10
2019-04-05T09:27:21.710Z,64.50
2019-04-05T09:30:26.795Z,62.90
2019-04-05T09:33:31.770Z,62.60
2019-04-05T09:36:37.022Z,62.30
2019-04-05T09:39:42.089Z,62.10
2019-04-05T09:42:47.198Z,62.10
2019-04-05T09:45:52.257Z,62.30
2019-04-05T09:48:57.343Z,61.60
2019-04-05T09:52:03.330Z,61.70
2019-04-05T09:55:08.561Z,61.70
2019-04-05T09:58:13.722Z,61.40
2019-04-05T10:01:18.794Z,61.10
2019-04-05T10:04:23.760Z,61.50
2019-04-05T10:07:28.842Z,61.20
2019-04-05T10:10:34.017Z,61.30
2019-04-05T10:13:39.001Z,60.50
2019-04-05T10:16:44.223Z,60.00
2019-04-05T10:19:50.345Z,59.90
2019-04-05T10:22:56.295Z,59.50
2019-04-05T10:26:01.428Z,60.30
2019-04-05T10:29:06.933Z,59.60
2019-04-05T10:32:11.859Z,60.20
2019-04-05T10:35:16.921Z,61.10
2019-04-05T10:38:22.001Z,61.50
2019-04-05T10:41:27.166Z,63.20
2019-04-05T10:44:32.667Z,63.40
2019-04-05T10:47:37.894Z,63.60
2019-04-05T10:50:42.974Z,65.00
2019-04-05T10:53:47.932Z,64.90
2019-04-05T10:56:54.285Z,65.30
2019-04-05T10:59:59.163Z,65.80
2019-04-05T11:03:04.175Z,66.10
2019-04-05T11:06:09.248Z,67.00
2019-04-05T11:09:14.251Z,67.60
2019-04-05T11:12:19.226Z,68.30
2019-04-05T11:15:24.391Z,69.70
2019-04-05T11:18:30.655Z,70.70
2019-04-05T11:21:36.042Z,72.10
2019-04-05T11:24:41.155Z,72.30
2019-04-05T11:27:46.123Z,72.40
2019-04-05T11:30:51.156Z,73.60
2019-04-05T11:33:56.465Z,73.40
2019-04-05T11:37:02.938Z,73.90
2019-04-05T11:40:09.643Z,74.10
2019-04-05T11:43:15.999Z,73.80
2019-04-05T11:46:21.513Z,74.30
2019-04-05T11:49:28.445Z,75.20
2019-04-05T11:52:33.612Z,74.90
2019-04-05T11:55:38.785Z,75.40
2019-04-05T11:58:48.470Z,75.00
2019-04-05T12:02:12.675Z,75.80
2019-04-05T12:05:20.376Z,75.60
2019-04-05T12:08:25.410Z,74.90
2019-04-05T12:11:30.283Z,75.10
2019-04-05T12:14:36.738Z,74.70
2019-04-05T12:17:43.586Z,74.40
2019-04-05T12:20:58.960Z,74.50
2019-04-05T12:23:55.626Z,75.20
2019-04-05T12:27:02.629Z,74.70
2019-04-05T12:30:09.286Z,75.00
2019-04-05T12:33:14.983Z,74.80
2019-04-05T12:36:22.083Z,74.40
2019-04-05T12:39:27.118Z,74.70
2019-04-05T12:42:32.907Z,74.80
2019-04-05T12:45:37.975Z,75.40
2019-04-05T12:48:45.523Z,75.00
2019-04-05T12:51:49.984Z,75.20
2019-04-05T12:54:55.283Z,75.00
2019-04-05T12:58:00.608Z,75.50
2019-04-05T13:01:09.472Z,76.30
2019-04-05T13:04:14.472Z,76.80
2019-04-05T13:07:22.806Z,77.20
2019-04-05T13:10:30.332Z,77.10
2019-04-05T13:13:34.828Z,78.00
2019-04-05T13:16:39.872Z,78.00
2019-04-05T13:19:45.191Z,76.80
2019-04-05T13:22:50.299Z,77.20
2019-04-05T13:25:55.163Z,77.30
2019-04-05T13:29:00.166Z,77.20
2019-04-05T13:32:05.173Z,77.60
2019-04-05T13:35:11.114Z,77.60
2019-04-05T13:38:16.088Z,77.20
2019-04-05T13:41:20.773Z,78.00
2019-04-05T13:44:25.971Z,78.00
2019-04-05T13:47:33.042Z,77.90
2019-04-05T13:50:41.428Z,77.80
2019-04-05T13:53:44.833Z,77.90
2019-04-05T13:56:49.779Z,77.80
2019-04-05T13:59:54.957Z,78.30
2019-04-05T14:03:00.216Z,77.60
2019-04-05T14:06:05.260Z,77.70
2019-04-05T14:09:10.900Z,78.30
2019-04-05T14:12:15.848Z,79.00
2019-04-05T14:15:20.757Z,78.90
2019-04-05T14:18:25.462Z,79.70
2019-04-05T14:21:39.826Z,80.10
2019-04-05T14:24:36.926Z,80.20
2019-04-05T14:27:42.183Z,79.80
2019-04-05T14:30:47.132Z,79.80
2019-04-05T14:33:54.230Z,80.30
2019-04-05T14:37:01.618Z,80.10
2019-04-05T14:40:07.523Z,79.40
2019-04-05T14:43:15.012Z,80.10
2019-04-05T14:46:20.224Z,78.50
2019-04-05T14:49:25.741Z,78.80
2019-04-05T14:52:31.060Z,79.00
2019-04-05T14:55:36.781Z,78.00
2019-04-05T14:58:41.972Z,77.90
2019-04-05T15:01:47.085Z,78.10
2019-04-05T15:04:52.616Z,78.90
2019-04-05T15:07:57.571Z,78.90
2019-04-05T15:11:02.568Z,77.80
2019-04-05T15:14:07.661Z,79.00
2019-04-05T15:17:12.629Z,79.50
2019-04-05T15:20:18.513Z,80.20
2019-04-05T15:23:23.620Z,80.50
2019-04-05T15:26:47.348Z,80.10
2019-04-05T15:29:55.461Z,79.80
2019-04-05T15:33:00.543Z,80.20
2019-04-05T15:36:06.826Z,79.80
2019-04-05T15:39:11.804Z,79.40
2019-04-05T15:42:16.963Z,80.00
2019-04-05T15:45:22.102Z,79.30
2019-04-05T15:48:27.252Z,79.20
2019-04-05T15:51:32.265Z,79.70
2019-04-05T15:54:37.496Z,80.10
2019-04-05T15:57:42.636Z,79.50
2019-04-05T16:00:47.996Z,79.20
2019-04-05T16:03:52.901Z,79.30
2019-04-05T16:06:58.166Z,79.60
2019-04-05T16:10:03.493Z,79.20
2019-04-05T16:13:08.742Z,79.70
2019-04-05T16:16:13.680Z,80.10
2019-04-05T16:19:18.598Z,80.00
2019-04-05T16:22:31.281Z,80.20
2019-04-05T16:25:30.261Z,80.80
2019-04-05T16:28:35.436Z,81.00
2019-04-05T16:31:40.442Z,80.80
2019-04-05T16:34:45.528Z,81.00
2019-04-05T16:37:50.518Z,80.40
2019-04-05T16:40:55.590Z,80.20
2019-04-05T16:44:00.590Z,80.00
2019-04-05T16:47:05.403Z,79.80
2019-04-05T16:50:11.949Z,80.40
2019-04-05T16:53:16.864Z,80.40
2019-04-05T16:56:21.900Z,80.50
2019-04-05T16:59:27.069Z,80.70
2019-04-05T17:02:32.259Z,81.00
2019-04-05T17:05:37.277Z,81.50
2019-04-05T17:08:45.353Z,81.70
2019-04-05T17:11:49.084Z,81.60
2019-04-05T17:14:54.224Z,81.90
2019-04-05T17:17:59.375Z,82.20
2019-04-05T17:21:04.755Z,82.30
2019-04-05T17:24:09.898Z,82.40
2019-04-05T17:27:14.873Z,82.50
2019-04-05T17:30:20.347Z,82.70
2019-04-05T17:33:25.551Z,82.60
2019-04-05T17:36:30.705Z,82.60
2019-04-05T17:39:35.847Z,82.40
2019-04-05T17:42:40.996Z,82.50
2019-04-05T17:45:46.302Z,82.60
2019-04-05T17:48:51.921Z,82.90
2019-04-05T17:51:57.189Z,83.00
2019-04-05T17:55:02.245Z,83.20
2019-04-05T17:58:07.845Z,83.70
2019-04-05T18:01:13.019Z,83.60
2019-04-05T18:04:18.032Z,83.50
2019-04-05T18:07:22.974Z,83.30
2019-04-05T18:10:27.952Z,83.80
2019-04-05T18:13:33.038Z,83.60
2019-04-05T18:16:39.750Z,83.90
2019-04-05T18:19:44.764Z,84.00
2019-04-05T18:22:49.834Z,84.00
2019-04-05T18:25:55.078Z,83.90
2019-04-05T18:28:59.937Z,83.70
2019-04-05T18:32:05.752Z,83.50
2019-04-05T18:35:10.917Z,83.60
2019-04-05T18:38:16.571Z,83.60
2019-04-05T18:41:21.647Z,83.50
2019-04-05T18:44:27.154Z,83.90
2019-04-05T18:47:32.411Z,83.60
2019-04-05T18:50:37.421Z,84.10
2019-04-05T18:53:43.608Z,83.90
2019-04-05T18:56:48.629Z,84.10
2019-04-05T18:59:53.557Z,84.10
2019-04-05T19:02:58.882Z,84.20
2019-04-05T19:06:03.821Z,84.40
2019-04-05T19:09:11.677Z,84.40
2019-04-05T19:12:16.242Z,84.80
2019-04-05T19:15:21.342Z,84.70
2019-04-05T19:18:26.369Z,84.90
2019-04-05T19:21:31.752Z,84.80
2019-04-05T19:24:36.901Z,84.80
2019-04-05T19:27:41.923Z,84.70
2019-04-05T19:49:29.041Z,83.40
2019-04-05T19:52:34.638Z,83.20
2019-04-05T19:55:39.827Z,83.10
2019-04-05T19:58:46.056Z,82.60
2019-04-05T20:01:51.418Z,82.70
2019-04-05T20:04:56.495Z,83.20
2019-04-05T20:08:01.725Z,83.40
2019-04-05T20:11:06.642Z,84.10
2019-04-05T20:14:11.820Z,84.30
2019-04-05T20:17:16.871Z,84.40
2019-04-05T20:20:22.102Z,84.10
2019-04-05T20:23:27.278Z,84.10
2019-04-05T20:26:32.545Z,84.40
2019-04-05T20:29:37.743Z,84.50
2019-04-05T20:32:42.649Z,84.70
2019-04-05T20:35:47.809Z,84.40
2019-04-05T20:38:52.706Z,84.30
2019-04-05T20:41:57.902Z,83.00
2019-04-05T20:45:02.903Z,83.20
2019-04-05T20:48:08.182Z,83.40
2019-04-05T20:51:12.986Z,83.20
2019-04-05T20:54:24.566Z,83.00
2019-04-05T20:57:24.745Z,83.20
2019-04-05T21:00:29.962Z,83.40
2019-04-05T21:03:34.901Z,83.00
2019-04-05T21:06:40.521Z,83.10
2019-04-05T21:09:45.612Z,83.20
2019-04-05T21:12:51.022Z,82.20
2019-04-05T21:15:56.322Z,82.60
2019-04-05T21:19:01.557Z,82.50
2019-04-05T21:22:06.482Z,82.70
2019-04-05T21:25:11.468Z,82.60
2019-04-05T21:28:16.428Z,82.80
2019-04-05T21:31:21.501Z,83.40
2019-04-05T21:34:26.706Z,83.50
2019-04-05T21:37:31.635Z,83.70
2019-04-05T21:40:36.807Z,83.90
2019-04-05T21:43:41.976Z,84.10
2019-04-05T21:46:47.041Z,83.80
2019-04-05T21:49:52.080Z,84.00
2019-04-05T21:52:57.156Z,83.80
2019-04-05T21:56:02.119Z,83.80
2019-04-05T21:59:06.979Z,84.30
2019-04-05T22:02:11.941Z,84.80
2019-04-05T22:05:16.816Z,84.80
2019-04-05T22:08:21.836Z,84.60
2019-04-05T22:11:27.923Z,84.60
2019-04-05T22:14:33.187Z,84.50
2019-04-05T22:17:38.105Z,85.00
2019-04-05T22:20:43.448Z,85.60
2019-04-05T22:23:48.587Z,85.80
2019-04-05T22:26:53.663Z,85.30
2019-04-05T22:30:01.596Z,84.70
2019-04-05T22:33:06.881Z,84.90
2019-04-05T22:36:12.197Z,84.80
2019-04-05T22:39:17.191Z,85.20
2019-04-05T22:42:22.126Z,84.70
2019-04-05T22:45:27.254Z,84.30
2019-04-05T22:48:32.192Z,84.30
2019-04-05T22:51:37.267Z,84.30
2019-04-05T22:54:42.277Z,84.30
2019-04-05T22:57:47.225Z,84.40
2019-04-05T23:00:52.237Z,83.80
2019-04-05T23:03:57.346Z,83.70
2019-04-05T23:07:02.340Z,83.50
2019-04-05T23:10:07.602Z,83.40
2019-04-05T23:13:12.838Z,83.00
2019-04-05T23:16:18.904Z,82.80
2019-04-05T23:19:24.163Z,82.70
2019-04-05T23:22:29.090Z,82.70
2019-04-05T23:25:34.345Z,82.60
2019-04-05T23:28:39.402Z,82.90
2019-04-05T23:31:44.642Z,82.80
2019-04-05T23:34:49.598Z,83.40
2019-04-05T23:37:54.769Z,83.30
2019-04-05T23:40:59.688Z,83.00
2019-04-05T23:44:04.818Z,83.30
2019-04-05T23:47:09.860Z,83.80
2019-04-05T23:50:15.217Z,84.30
2019-04-05T23:53:20.218Z,84.60
2019-04-05T23:56:25.401Z,84.40
2019-04-05T23:59:30.436Z,84.70
